Time;durP1;ratioP1;P1;durP2;ratioP2;P2;SDS_P1;SDS_P2;PMS_P1;PMS_P2;Temp;Humidity;BMP_temperature;BMP_pressure;BME280_temperature;BME280_humidity;BME280_pressure;Samples;Min_cycle;Max_cycle;Signal;HPM_P1;HPM_P2
2022/11/25 00:01:48;;;;;;;12.33;11.07;;;4.30;99.90;;;;;;4968792;28;20217;-72
2022/11/25 00:04:15;;;;;;;12.47;11.17;;;4.30;99.90;;;;;;4969064;28;20217;-73
2022/11/25 00:06:43;;;;;;;13.57;11.27;;;4.30;99.90;;;;;;4968343;28;20329;-72
2022/11/25 00:09:11;;;;;;;12.33;11.03;;;4.30;99.90;;;;;;4968426;28;20737;-72
2022/11/25 00:11:42;;;;;;;11.80;10.60;;;4.30;99.90;;;;;;4968452;28;20829;-72
2022/11/25 00:14:13;;;;;;;12.30;11.00;;;4.30;99.90;;;;;;4968884;28;20475;-73
2022/11/25 00:16:39;;;;;;;11.53;10.43;;;4.30;99.90;;;;;;4967941;28;20999;-72
2022/11/25 00:19:06;;;;;;;12.23;11.03;;;4.40;99.90;;;;;;4968451;28;20351;-72
2022/11/25 00:21:34;;;;;;;12.03;10.73;;;4.40;99.90;;;;;;4968464;28;20706;-72
2022/11/25 00:24:02;;;;;;;12.10;10.87;;;4.40;99.90;;;;;;4968738;28;20293;-71
2022/11/25 00:26:32;;;;;;;11.73;10.50;;;4.40;99.90;;;;;;4968331;28;20302;-72
2022/11/25 00:29:02;;;;;;;11.07;10.07;;;4.40;99.90;;;;;;4968744;28;20203;-72
2022/11/25 00:31:31;;;;;;;12.63;11.33;;;4.40;99.90;;;;;;4967805;28;20206;-71
2022/11/25 00:33:58;;;;;;;12.23;10.40;;;4.40;99.90;;;;;;4968343;28;20302;-71
2022/11/25 00:36:27;;;;;;;11.20;10.10;;;4.40;99.90;;;;;;4968143;28;20234;-72
2022/11/25 00:38:55;;;;;;;12.70;11.00;;;4.40;99.90;;;;;;4968068;28;20755;-73
2022/11/25 00:46:54;;;;;;;11.30;10.17;;;4.40;99.90;;;;;;4968189;28;20686;-73
2022/11/25 00:49:21;;;;;;;13.53;11.03;;;4.40;99.90;;;;;;4970611;28;20554;-73
2022/11/25 00:51:48;;;;;;;12.33;11.03;;;4.40;99.90;;;;;;4972162;28;20832;-72
2022/11/25 00:54:15;;;;;;;12.63;10.33;;;4.40;99.90;;;;;;4972211;28;20293;-72
2022/11/25 00:56:42;;;;;;;13.90;10.97;;;4.40;99.90;;;;;;4971912;28;20322;-72
2022/11/25 00:59:10;;;;;;;11.90;10.70;;;4.40;99.90;;;;;;4972212;28;20219;-72
2022/11/25 01:01:37;;;;;;;12.27;11.00;;;4.40;99.90;;;;;;4971947;28;20213;-72
2022/11/25 01:04:05;;;;;;;11.97;10.70;;;4.40;99.90;;;;;;4971741;28;20310;-72
2022/11/25 01:06:32;;;;;;;12.40;11.20;;;4.50;99.90;;;;;;4971404;28;20321;-72
2022/11/25 01:08:58;;;;;;;13.03;10.83;;;4.50;99.90;;;;;;4971721;28;20206;-71
2022/11/25 01:11:26;;;;;;;11.20;10.00;;;4.50;99.90;;;;;;4971625;28;20716;-72
2022/11/25 01:13:55;;;;;;;11.80;10.40;;;4.50;99.90;;;;;;4971755;28;20302;-71
2022/11/25 01:16:23;;;;;;;11.07;9.97;;;4.50;99.90;;;;;;4971131;28;20293;-71
2022/11/25 01:18:50;;;;;;;12.20;11.00;;;4.50;99.90;;;;;;4971663;28;20651;-72
2022/11/25 01:21:19;;;;;;;12.57;11.13;;;4.50;99.90;;;;;;4972094;28;20326;-76
2022/11/25 01:23:47;;;;;;;11.93;10.63;;;4.50;99.90;;;;;;4971854;28;20207;-76
2022/11/25 01:26:16;;;;;;;11.70;10.47;;;4.50;99.90;;;;;;4971888;28;20222;-76
2022/11/25 01:28:43;;;;;;;12.20;10.90;;;4.50;99.90;;;;;;4971947;28;20305;-75
2022/11/25 01:31:13;;;;;;;11.83;10.50;;;4.50;99.90;;;;;;4971840;28;20207;-75
2022/11/25 01:33:42;;;;;;;12.80;11.07;;;4.50;99.90;;;;;;4971868;28;20210;-75
2022/11/25 01:36:11;;;;;;;12.43;11.07;;;4.50;99.90;;;;;;4972066;28;20318;-75
2022/11/25 01:38:38;;;;;;;11.93;10.73;;;4.50;99.90;;;;;;4959988;28;20740;-74
2022/11/25 01:41:06;;;;;;;13.13;10.97;;;4.50;99.90;;;;;;4969951;28;20665;-76
2022/11/25 01:43:33;;;;;;;12.40;10.83;;;4.50;99.90;;;;;;4971986;28;20215;-75
2022/11/25 01:46:06;;;;;;;11.53;10.10;;;4.50;99.90;;;;;;4971573;28;20246;-76
2022/11/25 01:48:39;;;;;;;11.30;10.20;;;4.50;99.90;;;;;;4971612;28;20310;-75
2022/11/25 01:51:18;;;;;;;11.37;10.27;;;4.50;99.90;;;;;;4971269;28;20285;-75
2022/11/25 01:53:46;;;;;;;13.10;10.80;;;4.50;99.90;;;;;;4971535;28;20662;-75
2022/11/25 01:56:13;;;;;;;13.53;10.67;;;4.50;99.90;;;;;;4971492;28;20235;-76
2022/11/25 01:58:41;;;;;;;11.73;10.50;;;4.50;99.90;;;;;;4971506;28;20312;-76
2022/11/25 02:01:08;;;;;;;10.93;9.93;;;4.50;99.90;;;;;;4970321;28;20302;-76
2022/11/25 02:03:39;;;;;;;11.93;10.67;;;4.50;99.90;;;;;;4970601;28;20760;-75
2022/11/25 02:06:11;;;;;;;11.47;10.37;;;4.50;99.90;;;;;;4970926;28;20491;-75
2022/11/25 02:08:39;;;;;;;11.43;10.33;;;4.50;99.90;;;;;;4970420;28;20894;-74
2022/11/25 02:11:06;;;;;;;11.90;10.63;;;4.50;99.90;;;;;;4970575;28;20688;-73
2022/11/25 02:13:33;;;;;;;11.93;10.57;;;4.40;99.90;;;;;;4957453;28;20286;-73
2022/11/25 02:16:00;;;;;;;13.27;11.33;;;4.40;99.90;;;;;;4970488;28;20600;-73
2022/11/25 02:18:27;;;;;;;12.00;10.33;;;4.40;99.90;;;;;;4970587;28;20630;-73
2022/11/25 02:20:54;;;;;;;13.93;11.03;;;4.40;99.90;;;;;;4970700;28;20238;-74
2022/11/25 02:23:32;;;;;;;14.70;11.33;;;4.40;99.90;;;;;;4970254;28;20733;-73
2022/11/25 02:26:01;;;;;;;13.60;11.30;;;4.40;99.90;;;;;;4970691;28;20215;-73
2022/11/25 02:28:30;;;;;;;12.43;11.13;;;4.30;99.90;;;;;;4962921;28;20239;-73
2022/11/25 02:30:59;;;;;;;12.80;11.50;;;4.30;99.90;;;;;;4950991;28;20207;-72
2022/11/25 02:33:27;;;;;;;12.67;11.37;;;4.30;99.90;;;;;;4955587;28;20291;-72
2022/11/25 02:35:56;;;;;;;14.43;12.33;;;4.40;99.90;;;;;;4969863;28;20662;-71
2022/11/25 02:38:30;;;;;;;16.30;12.53;;;4.40;99.90;;;;;;4970117;28;20301;-71
2022/11/25 02:41:04;;;;;;;16.13;12.27;;;4.40;99.90;;;;;;4970299;28;20194;-71
2022/11/25 02:43:31;;;;;;;13.93;12.20;;;4.40;99.90;;;;;;4970215;28;20230;-71
2022/11/25 02:46:01;;;;;;;16.20;12.43;;;4.40;99.90;;;;;;4969918;28;20592;-71
2022/11/25 02:48:30;;;;;;;16.70;13.37;;;4.40;99.90;;;;;;4970251;28;20314;-72
2022/11/25 02:50:57;;;;;;;17.33;13.13;;;4.30;99.90;;;;;;4969814;28;20661;-72
2022/11/25 02:53:24;;;;;;;16.43;12.93;;;4.30;99.90;;;;;;4969811;28;20210;-72
2022/11/25 02:55:51;;;;;;;23.60;14.17;;;4.30;99.90;;;;;;4969597;28;20297;-71
2022/11/25 02:58:20;;;;;;;18.27;13.50;;;4.20;99.90;;;;;;4969645;28;20266;-72
2022/11/25 03:00:47;;;;;;;17.10;13.57;;;4.10;99.90;;;;;;4969909;28;20286;-72
2022/11/25 03:03:14;;;;;;;19.17;13.70;;;4.10;99.90;;;;;;4970134;28;20293;-72
2022/11/25 03:05:41;;;;;;;15.20;13.07;;;4.10;99.90;;;;;;4969105;28;20246;-71
2022/11/25 03:08:08;;;;;;;17.20;14.17;;;4.10;99.90;;;;;;4969642;28;20286;-71
2022/11/25 03:10:36;;;;;;;17.40;13.83;;;4.20;99.90;;;;;;4969479;28;20302;-72
2022/11/25 03:13:04;;;;;;;15.63;13.53;;;4.20;99.90;;;;;;4969626;28;20294;-71
2022/11/25 03:15:32;;;;;;;15.13;12.63;;;4.20;99.90;;;;;;4969447;28;20302;-72
2022/11/25 03:18:00;;;;;;;19.90;13.73;;;4.30;99.90;;;;;;4969558;28;20235;-73
2022/11/25 03:20:27;;;;;;;18.00;14.10;;;4.30;99.90;;;;;;4969379;28;20206;-72
2022/11/25 03:22:54;;;;;;;16.40;13.37;;;4.30;99.90;;;;;;4969135;28;20646;-71
2022/11/25 03:25:21;;;;;;;16.50;13.33;;;4.30;99.90;;;;;;4969759;28;20314;-72
2022/11/25 03:27:48;;;;;;;17.87;14.20;;;4.40;99.90;;;;;;4969577;28;20647;-73
2022/11/25 03:30:17;;;;;;;17.50;14.30;;;4.40;99.90;;;;;;4969437;28;20301;-73
2022/11/25 03:32:45;;;;;;;18.50;13.87;;;4.40;99.90;;;;;;4969402;28;20290;-73
2022/11/25 03:35:13;;;;;;;19.60;13.90;;;4.40;99.90;;;;;;4956212;28;20208;-73
2022/11/25 03:37:41;;;;;;;15.73;13.73;;;4.40;99.90;;;;;;4952263;28;20329;-74
2022/11/25 03:40:11;;;;;;;19.47;14.43;;;4.40;99.90;;;;;;4967781;28;20250;-73
2022/11/25 03:42:39;;;;;;;16.03;13.30;;;4.40;99.90;;;;;;4968043;28;20314;-73
2022/11/25 03:45:07;;;;;;;17.00;13.37;;;4.40;99.90;;;;;;4967136;28;20305;-73
2022/11/25 03:47:34;;;;;;;18.37;13.53;;;4.40;99.90;;;;;;4967366;28;20233;-71
2022/11/25 03:50:02;;;;;;;17.37;12.77;;;4.40;99.90;;;;;;4966785;28;20298;-72
2022/11/25 03:52:29;;;;;;;17.90;13.77;;;4.40;99.90;;;;;;4966940;28;20309;-72
2022/11/25 03:54:56;;;;;;;16.57;14.13;;;4.40;99.90;;;;;;4967230;28;20242;-73
2022/11/25 03:57:22;;;;;;;17.43;13.97;;;4.40;99.90;;;;;;4966972;28;20237;-74
2022/11/25 03:59:49;;;;;;;18.00;14.30;;;4.40;99.90;;;;;;4967132;28;20303;-73
2022/11/25 04:02:16;;;;;;;16.77;13.90;;;4.50;99.90;;;;;;4966644;28;20653;-73
2022/11/25 04:04:43;;;;;;;14.67;12.10;;;4.40;99.90;;;;;;4966237;28;20306;-72
2022/11/25 04:07:11;;;;;;;16.67;13.27;;;4.40;99.90;;;;;;4967078;28;20242;-73
2022/11/25 04:09:38;;;;;;;16.87;13.40;;;4.50;99.90;;;;;;4949292;28;20208;-72
2022/11/25 04:14:50;;;;;;;17.93;13.20;;;4.50;99.90;;;;;;4949119;29;20801;-73
2022/11/25 04:17:17;;;;;;;15.17;12.67;;;4.50;99.90;;;;;;4961747;28;20234;-72
2022/11/25 04:19:44;;;;;;;16.13;12.13;;;4.50;99.90;;;;;;4967985;28;20297;-73
2022/11/25 04:22:12;;;;;;;14.47;11.93;;;4.50;99.90;;;;;;4968425;28;20205;-72
2022/11/25 04:24:39;;;;;;;14.60;12.90;;;4.50;99.90;;;;;;4973728;28;20305;-72
2022/11/25 04:27:06;;;;;;;14.33;12.60;;;4.50;99.90;;;;;;4974928;28;20305;-72
2022/11/25 04:29:33;;;;;;;12.57;11.23;;;4.50;99.90;;;;;;4974490;28;20300;-72
2022/11/25 04:32:00;;;;;;;14.17;12.10;;;4.50;99.90;;;;;;4975060;28;20306;-72
2022/11/25 04:34:26;;;;;;;12.47;11.10;;;4.60;99.90;;;;;;4974651;28;20298;-73
2022/11/25 04:36:53;;;;;;;13.13;11.37;;;4.60;99.90;;;;;;4975023;28;20230;-73
2022/11/25 04:39:21;;;;;;;14.90;11.93;;;4.60;99.90;;;;;;4974904;28;20341;-72
2022/11/25 04:41:48;;;;;;;12.43;11.20;;;4.60;99.90;;;;;;4974594;28;20298;-73
2022/11/25 04:44:15;;;;;;;12.50;11.27;;;4.60;99.90;;;;;;4974990;28;20334;-72
2022/11/25 04:46:43;;;;;;;14.07;11.07;;;4.60;99.90;;;;;;4974234;28;20317;-73
2022/11/25 04:49:11;;;;;;;12.23;11.00;;;4.60;99.90;;;;;;4974750;28;20211;-73
2022/11/25 04:51:38;;;;;;;11.27;10.10;;;4.60;99.90;;;;;;4974544;28;20309;-73
2022/11/25 04:54:05;;;;;;;11.63;10.40;;;4.60;99.90;;;;;;4974934;28;20211;-73
2022/11/25 04:56:33;;;;;;;12.20;10.50;;;4.60;99.90;;;;;;4974126;28;20253;-72
2022/11/25 05:01:44;;;;;;;11.90;10.70;;;4.60;99.90;;;;;;4974117;28;20342;-73
2022/11/25 05:04:11;;;;;;;11.07;9.97;;;4.60;99.90;;;;;;4974366;28;20745;-73
2022/11/25 05:06:38;;;;;;;11.47;10.27;;;4.60;99.90;;;;;;4974225;28;20969;-73
2022/11/25 05:09:05;;;;;;;11.53;10.33;;;4.60;99.90;;;;;;4974480;28;20320;-72
2022/11/25 05:11:33;;;;;;;12.10;10.40;;;4.70;99.90;;;;;;4974417;28;20212;-73
2022/11/25 05:14:00;;;;;;;11.83;10.63;;;4.70;99.90;;;;;;4974533;28;20636;-73
2022/11/25 05:16:27;;;;;;;12.03;10.80;;;4.70;99.90;;;;;;4973884;28;20227;-72
2022/11/25 05:18:55;;;;;;;11.37;10.17;;;4.70;99.90;;;;;;4974651;28;20234;-72
2022/11/25 05:21:22;;;;;;;10.80;9.80;;;4.70;99.90;;;;;;4974174;28;20234;-72
2022/11/25 05:23:49;;;;;;;12.13;10.60;;;4.70;99.90;;;;;;4974086;28;20749;-73
2022/11/25 05:26:16;;;;;;;11.47;10.30;;;4.60;99.90;;;;;;4974766;28;20238;-72
2022/11/25 05:28:44;;;;;;;11.93;10.23;;;4.70;99.90;;;;;;4974001;28;20214;-73
2022/11/25 05:31:11;;;;;;;11.63;10.37;;;4.70;99.90;;;;;;4974105;28;20210;-73
2022/11/25 05:33:38;;;;;;;11.70;10.47;;;4.70;99.90;;;;;;4974374;28;20297;-73
2022/11/25 05:36:05;;;;;;;11.43;9.73;;;4.70;99.90;;;;;;4970488;28;20207;-72
2022/11/25 05:38:32;;;;;;;11.20;9.83;;;4.70;99.90;;;;;;4971142;28;20329;-73
2022/11/25 05:41:04;;;;;;;12.07;10.80;;;4.70;99.90;;;;;;4971531;28;20217;-73
2022/11/25 05:43:31;;;;;;;11.40;10.00;;;4.70;99.90;;;;;;4970699;28;20254;-72
2022/11/25 05:45:59;;;;;;;11.83;9.97;;;4.70;99.90;;;;;;4971002;28;20277;-73
2022/11/25 05:48:26;;;;;;;11.00;9.90;;;4.70;99.90;;;;;;4971142;28;20321;-73
2022/11/25 05:50:53;;;;;;;12.90;11.07;;;4.70;99.90;;;;;;4971089;28;20215;-72
2022/11/25 05:53:20;;;;;;;12.63;11.33;;;4.70;99.90;;;;;;4970998;28;20301;-73
2022/11/25 05:55:55;;;;;;;12.70;10.27;;;4.70;99.90;;;;;;4970578;28;20712;-73
2022/11/25 05:58:22;;;;;;;13.40;11.83;;;4.70;99.90;;;;;;4970819;28;20228;-73
2022/11/25 06:00:48;;;;;;;12.37;11.10;;;4.60;99.90;;;;;;4984966;28;20649;-72
2022/11/25 06:03:17;;;;;;;14.47;11.00;;;4.60;99.90;;;;;;4990496;28;20744;-73
2022/11/25 06:05:44;;;;;;;13.93;11.43;;;4.60;99.90;;;;;;4978642;28;20250;-73
2022/11/25 06:08:14;;;;;;;13.70;11.53;;;4.60;99.90;;;;;;4963061;28;20207;-72
2022/11/25 06:10:41;;;;;;;15.27;11.50;;;4.50;99.90;;;;;;4951429;29;20298;-73
2022/11/25 06:13:08;;;;;;;13.33;11.90;;;4.50;99.90;;;;;;4951602;28;20415;-73
2022/11/25 06:15:35;;;;;;;14.13;11.50;;;4.50;99.90;;;;;;4951337;28;20307;-73
2022/11/25 06:18:02;;;;;;;16.20;12.20;;;4.50;99.90;;;;;;4951454;28;20664;-73
2022/11/25 06:20:30;;;;;;;17.53;12.80;;;4.50;99.90;;;;;;4957466;28;20301;-72
2022/11/25 06:22:57;;;;;;;14.67;12.40;;;4.50;99.90;;;;;;4970016;28;20305;-73
2022/11/25 06:25:25;;;;;;;17.53;12.77;;;4.50;99.90;;;;;;4970379;28;20298;-72
2022/11/25 06:27:52;;;;;;;17.20;13.10;;;4.50;99.90;;;;;;4970444;28;20301;-72
2022/11/25 06:30:19;;;;;;;17.13;12.97;;;4.40;99.90;;;;;;4970225;28;20207;-72
2022/11/25 06:32:46;;;;;;;16.47;12.90;;;4.40;99.90;;;;;;4970423;28;20211;-73
2022/11/25 06:35:14;;;;;;;18.20;12.67;;;4.40;99.90;;;;;;4970145;28;20645;-73
2022/11/25 06:37:42;;;;;;;16.40;12.30;;;4.50;99.90;;;;;;4970165;28;20354;-73
2022/11/25 06:40:10;;;;;;;17.43;12.60;;;4.40;99.90;;;;;;4970304;28;20306;-73
2022/11/25 06:42:38;;;;;;;16.63;12.73;;;4.40;99.90;;;;;;4950963;28;20298;-73
2022/11/25 06:45:05;;;;;;;16.93;12.53;;;4.40;99.90;;;;;;4950429;28;20211;-73
2022/11/25 06:47:33;;;;;;;16.90;12.90;;;4.40;99.90;;;;;;4950086;28;20237;-73
2022/11/25 06:49:59;;;;;;;14.47;12.67;;;4.40;99.90;;;;;;4953465;28;20429;-73
2022/11/25 06:52:26;;;;;;;14.60;12.47;;;4.40;99.90;;;;;;4969900;28;20765;-73
2022/11/25 06:54:54;;;;;;;16.80;13.10;;;4.40;99.90;;;;;;4969996;28;20664;-72
2022/11/25 06:57:21;;;;;;;15.37;12.70;;;4.40;99.90;;;;;;4969728;28;20291;-72
2022/11/25 06:59:48;;;;;;;17.17;12.53;;;4.40;99.90;;;;;;4976027;28;20566;-72
2022/11/25 07:02:15;;;;;;;17.40;12.60;;;4.40;99.90;;;;;;4989297;28;20214;-72
2022/11/25 07:04:42;;;;;;;15.27;12.30;;;4.40;99.90;;;;;;4986987;28;20211;-72
2022/11/25 07:07:09;;;;;;;17.60;13.70;;;4.40;99.90;;;;;;4969618;28;20612;-72
2022/11/25 07:09:36;;;;;;;18.07;13.60;;;4.40;99.90;;;;;;4969555;28;20246;-72
2022/11/25 07:12:05;;;;;;;23.90;13.57;;;4.40;99.90;;;;;;4969715;28;20320;-73
2022/11/25 07:14:32;;;;;;;25.67;13.57;;;4.40;99.90;;;;;;4969459;28;20230;-73
2022/11/25 07:16:59;;;;;;;31.87;14.87;;;4.40;99.90;;;;;;4969363;28;20293;-73
2022/11/25 07:19:26;;;;;;;24.00;14.30;;;4.30;99.90;;;;;;4969545;28;20301;-72
2022/11/25 07:21:53;;;;;;;22.43;14.37;;;4.30;99.90;;;;;;4969386;28;20203;-72
2022/11/25 07:24:19;;;;;;;26.37;13.77;;;4.30;99.90;;;;;;4969241;28;21150;-73
2022/11/25 07:26:46;;;;;;;30.57;14.07;;;4.40;99.90;;;;;;4969435;28;20230;-72
2022/11/25 07:29:16;;;;;;;25.20;13.33;;;4.40;99.90;;;;;;4969527;28;20210;-72
2022/11/25 07:31:45;;;;;;;29.83;13.60;;;4.40;99.90;;;;;;4969087;28;20221;-72
2022/11/25 07:34:13;;;;;;;43.93;13.83;;;4.40;99.90;;;;;;4969172;28;20236;-73
2022/11/25 07:36:41;;;;;;;32.20;13.93;;;4.40;99.90;;;;;;4969092;28;20298;-72
2022/11/25 07:39:11;;;;;;;42.23;14.43;;;4.40;99.90;;;;;;4969241;28;20258;-72
2022/11/25 07:41:39;;;;;;;18.50;13.03;;;4.40;99.90;;;;;;4969373;28;20644;-73
2022/11/25 07:44:07;;;;;;;18.70;13.43;;;4.40;99.90;;;;;;4969512;28;20696;-73
2022/11/25 07:46:37;;;;;;;23.17;13.13;;;4.40;99.90;;;;;;4968655;28;20313;-73
2022/11/25 07:49:05;;;;;;;24.20;13.33;;;4.40;99.90;;;;;;4969612;28;20229;-72
2022/11/25 07:51:35;;;;;;;21.20;13.10;;;4.50;99.90;;;;;;4968887;28;20302;-73
2022/11/25 07:54:04;;;;;;;20.30;12.97;;;4.50;99.90;;;;;;4969237;28;20305;-72
2022/11/25 07:56:31;;;;;;;23.33;12.60;;;4.60;99.90;;;;;;4969014;28;20301;-71
2022/11/25 07:58:58;;;;;;;18.13;12.77;;;4.60;99.90;;;;;;4968310;28;20274;-71
2022/11/25 08:01:25;;;;;;;17.10;12.30;;;4.60;99.90;;;;;;4981909;28;20813;-71
2022/11/25 08:03:53;;;;;;;15.73;12.17;;;4.60;99.90;;;;;;4968837;28;20650;-72
2022/11/25 08:06:23;;;;;;;15.20;11.93;;;4.60;99.90;;;;;;4968435;28;20317;-71
2022/11/25 08:08:53;;;;;;;16.67;11.73;;;4.70;99.90;;;;;;4969115;28;20215;-72
2022/11/25 08:11:22;;;;;;;18.10;12.97;;;4.70;99.90;;;;;;4969075;28;20218;-72
2022/11/25 08:13:49;;;;;;;16.03;12.10;;;4.70;99.90;;;;;;4968691;28;20206;-72
2022/11/25 08:16:18;;;;;;;16.47;12.37;;;4.70;99.90;;;;;;4968378;28;20246;-71
2022/11/25 08:18:45;;;;;;;15.90;11.47;;;4.80;99.90;;;;;;4968506;28;20321;-71
2022/11/25 08:21:15;;;;;;;14.77;12.40;;;4.80;99.90;;;;;;4968448;28;20483;-71
2022/11/25 08:23:43;;;;;;;15.17;11.73;;;4.80;99.90;;;;;;4967957;28;20318;-72
2022/11/25 08:26:12;;;;;;;13.23;11.53;;;4.80;99.90;;;;;;4968519;28;20209;-71
2022/11/25 08:28:41;;;;;;;16.17;11.87;;;4.80;99.90;;;;;;4968588;28;20302;-71
2022/11/25 08:31:09;;;;;;;15.30;12.10;;;4.80;99.90;;;;;;4968193;28;20242;-72
2022/11/25 08:33:36;;;;;;;12.30;10.63;;;4.80;99.90;;;;;;4968353;28;20631;-71
2022/11/25 08:36:03;;;;;;;17.70;12.60;;;4.80;99.90;;;;;;4968005;28;20301;-71
2022/11/25 08:38:32;;;;;;;16.10;12.37;;;4.80;99.90;;;;;;4968267;28;20330;-71
2022/11/25 08:40:59;;;;;;;18.57;12.20;;;4.80;99.90;;;;;;4968656;28;20301;-72
2022/11/25 08:43:27;;;;;;;13.47;11.90;;;4.90;99.90;;;;;;4968138;28;20647;-72
2022/11/25 08:45:53;;;;;;;15.63;11.80;;;4.90;99.90;;;;;;4967937;28;20309;-71
2022/11/25 08:48:21;;;;;;;13.33;11.50;;;4.90;99.90;;;;;;4968431;28;20215;-72
2022/11/25 08:50:51;;;;;;;15.17;11.43;;;5.00;99.90;;;;;;4968597;28;20298;-72
2022/11/25 08:53:18;;;;;;;16.47;11.10;;;5.00;99.90;;;;;;4968338;28;20290;-71
2022/11/25 08:55:47;;;;;;;13.47;10.40;;;5.00;99.90;;;;;;4968451;28;20287;-71
2022/11/25 08:58:13;;;;;;;15.90;12.03;;;5.00;99.90;;;;;;4968103;28;20236;-71
2022/11/25 09:00:43;;;;;;;14.70;10.83;;;5.10;99.90;;;;;;4968207;28;20297;-71
2022/11/25 09:03:11;;;;;;;12.37;10.97;;;5.10;99.90;;;;;;4968345;28;20297;-72
2022/11/25 09:05:40;;;;;;;13.07;10.40;;;5.10;99.90;;;;;;4968014;28;20265;-73
2022/11/25 09:08:08;;;;;;;11.83;10.53;;;5.10;99.90;;;;;;4968308;28;20306;-72
2022/11/25 09:10:36;;;;;;;11.77;10.50;;;5.20;99.90;;;;;;4970269;28;20306;-71
2022/11/25 09:13:04;;;;;;;13.70;10.57;;;5.20;99.90;;;;;;4971943;28;20298;-72
2022/11/25 09:15:32;;;;;;;12.33;10.60;;;5.20;99.90;;;;;;4971737;28;20203;-72
2022/11/25 09:18:00;;;;;;;14.20;11.30;;;5.30;99.90;;;;;;4971719;28;20305;-72
2022/11/25 09:20:28;;;;;;;14.70;10.77;;;5.30;99.90;;;;;;4971582;28;20222;-72
2022/11/25 09:22:54;;;;;;;14.20;11.13;;;5.30;99.90;;;;;;4971230;28;20295;-72
2022/11/25 09:25:21;;;;;;;12.47;10.47;;;5.40;99.90;;;;;;4971406;28;20206;-72
2022/11/25 09:27:48;;;;;;;12.87;10.27;;;5.40;99.90;;;;;;4967726;28;20250;-72
2022/11/25 09:30:17;;;;;;;14.00;10.63;;;5.50;99.90;;;;;;4962566;28;20632;-72
2022/11/25 09:32:44;;;;;;;11.20;10.10;;;5.60;99.90;;;;;;4971338;28;20737;-72
2022/11/25 09:35:11;;;;;;;12.37;10.50;;;5.70;99.90;;;;;;4971159;28;20242;-71
2022/11/25 09:37:38;;;;;;;12.60;10.23;;;5.80;99.90;;;;;;4970872;28;20686;-72
2022/11/25 09:40:07;;;;;;;11.73;10.13;;;5.90;99.90;;;;;;4970930;28;20234;-71
2022/11/25 09:48:51;;;;;;;12.53;9.57;;;6.10;99.90;;;;;;4971062;28;20202;-71
2022/11/25 09:51:23;;;;;;;11.53;9.87;;;6.20;99.90;;;;;;4971260;28;20731;-71
2022/11/25 09:53:53;;;;;;;14.50;10.00;;;6.20;99.90;;;;;;4971421;28;20250;-71
2022/11/25 09:56:31;;;;;;;12.30;10.10;;;6.40;99.90;;;;;;4971291;28;20831;-71
2022/11/25 09:59:05;;;;;;;9.93;8.73;;;6.40;99.90;;;;;;4970780;28;20310;-72
2022/11/25 10:01:43;;;;;;;11.37;9.63;;;6.40;99.90;;;;;;4951189;28;20713;-71
2022/11/25 10:04:15;;;;;;;11.00;9.23;;;6.40;99.90;;;;;;4951614;28;20235;-72
2022/11/25 10:06:48;;;;;;;9.87;8.73;;;6.40;99.90;;;;;;4967330;28;20676;-71
2022/11/25 10:09:19;;;;;;;10.63;9.43;;;6.40;99.90;;;;;;4970700;28;20266;-71
2022/11/25 10:11:50;;;;;;;11.10;9.53;;;6.50;99.90;;;;;;4970914;28;20563;-71
2022/11/25 10:14:26;;;;;;;10.40;9.13;;;6.60;99.90;;;;;;4970461;28;20199;-71
2022/11/25 10:17:02;;;;;;;11.50;9.63;;;6.60;99.90;;;;;;4970639;28;20290;-71
2022/11/25 10:19:47;;;;;;;10.17;9.27;;;6.80;99.90;;;;;;4970327;28;20265;-71
2022/11/25 10:22:25;;;;;;;12.33;9.17;;;6.90;99.90;;;;;;4969779;28;20207;-72
2022/11/25 10:24:56;;;;;;;11.03;9.17;;;6.90;99.90;;;;;;4970309;28;20214;-72
2022/11/25 10:27:27;;;;;;;9.83;8.93;;;7.00;99.90;;;;;;4970424;28;20206;-71
2022/11/25 10:30:02;;;;;;;11.67;9.40;;;7.00;99.90;;;;;;4969954;28;20747;-72
2022/11/25 10:32:39;;;;;;;10.23;9.23;;;7.20;99.90;;;;;;4970215;28;20286;-71
2022/11/25 10:35:19;;;;;;;11.20;9.33;;;7.30;99.90;;;;;;4970517;28;20301;-72
2022/11/25 10:37:48;;;;;;;11.47;9.47;;;7.50;99.90;;;;;;4970312;28;20293;-72
2022/11/25 10:40:17;;;;;;;10.33;9.20;;;7.60;99.90;;;;;;4970117;28;20645;-72
2022/11/25 10:42:44;;;;;;;9.63;8.43;;;7.70;99.90;;;;;;4969775;28;20210;-72
2022/11/25 10:45:12;;;;;;;11.80;9.40;;;7.70;99.90;;;;;;4969975;28;20248;-72
2022/11/25 10:48:04;;;;;;;11.30;9.07;;;7.80;99.90;;;;;;4969911;28;20274;-72
2022/11/25 10:50:39;;;;;;;10.97;9.13;;;7.90;99.90;;;;;;4969882;28;20302;-72
2022/11/25 10:53:15;;;;;;;9.73;8.73;;;8.00;99.90;;;;;;4969923;28;20651;-71
2022/11/25 10:55:57;;;;;;;9.20;8.40;;;8.10;99.90;;;;;;4969514;28;20282;-72
2022/11/25 10:58:29;;;;;;;10.23;9.17;;;8.20;99.90;;;;;;4969229;28;20203;-72
2022/11/25 11:01:13;;;;;;;10.00;9.00;;;8.20;99.90;;;;;;4984902;28;20286;-72
2022/11/25 11:03:44;;;;;;;10.30;9.27;;;8.30;99.90;;;;;;4988710;28;20212;-72
2022/11/25 11:06:31;;;;;;;11.23;8.60;;;8.40;99.90;;;;;;4988699;28;20647;-72
2022/11/25 11:08:58;;;;;;;10.70;8.60;;;8.40;99.90;;;;;;4974796;28;20223;-72
2022/11/25 11:11:25;;;;;;;9.00;8.17;;;8.50;99.90;;;;;;4969598;28;20309;-72
2022/11/25 11:14:11;;;;;;;10.80;9.10;;;8.60;99.90;;;;;;4969626;28;20303;-72
2022/11/25 11:16:41;;;;;;;9.10;8.10;;;8.60;99.90;;;;;;4969545;28;20199;-74
2022/11/25 11:19:22;;;;;;;10.37;7.97;;;8.80;99.90;;;;;;4969409;28;20688;-74
2022/11/25 11:21:51;;;;;;;9.63;7.87;;;8.90;99.90;;;;;;4969373;28;20202;-74
2022/11/25 11:24:27;;;;;;;9.90;7.93;;;8.90;99.90;;;;;;4969327;28;20217;-74
2022/11/25 11:27:06;;;;;;;11.67;8.83;;;9.00;99.90;;;;;;4969306;28;20195;-72
2022/11/25 11:29:34;;;;;;;10.47;8.37;;;9.10;99.90;;;;;;4969016;28;20215;-72
2022/11/25 11:32:04;;;;;;;11.33;8.80;;;9.10;99.90;;;;;;4969000;28;20407;-72
2022/11/25 11:34:51;;;;;;;8.47;7.60;;;9.20;99.90;;;;;;4968185;28;20677;-72
2022/11/25 11:37:33;;;;;;;8.77;6.77;;;9.30;99.90;;;;;;4969290;28;20262;-72
2022/11/25 11:40:18;;;;;;;7.60;6.80;;;9.30;99.90;;;;;;4969550;28;20262;-72
2022/11/25 11:43:09;;;;;;;7.70;6.40;;;9.40;99.90;;;;;;4968948;28;20717;-72
2022/11/25 11:45:51;;;;;;;7.57;5.80;;;9.50;99.90;;;;;;4968883;28;20286;-72
2022/11/25 11:48:27;;;;;;;10.93;6.20;;;9.40;99.90;;;;;;4969333;28;20334;-72
2022/11/25 11:51:02;;;;;;;9.50;5.17;;;9.40;99.90;;;;;;4969310;28;20190;-72
2022/11/25 11:53:34;;;;;;;8.03;5.27;;;9.30;99.90;;;;;;4968582;28;20942;-72
2022/11/25 11:56:09;;;;;;;7.50;4.90;;;9.20;99.90;;;;;;4969071;28;20286;-72
2022/11/25 11:58:54;;;;;;;5.20;4.37;;;9.10;99.90;;;;;;4968723;28;20206;-72
2022/11/25 12:01:38;;;;;;;6.10;4.23;;;9.00;99.90;;;;;;4987406;28;20202;-72
2022/11/25 12:04:17;;;;;;;4.60;4.20;;;9.00;99.90;;;;;;4988328;28;20275;-72
2022/11/25 12:06:58;;;;;;;5.70;4.40;;;8.90;99.90;;;;;;4988032;28;20858;-72
2022/11/25 12:09:28;;;;;;;7.00;4.93;;;8.80;99.90;;;;;;4970571;28;20297;-71
2022/11/25 12:12:01;;;;;;;5.70;4.30;;;8.80;99.90;;;;;;4968950;28;20242;-72
2022/11/25 12:14:36;;;;;;;7.00;5.63;;;8.80;99.90;;;;;;4968540;28;20645;-71
2022/11/25 12:17:08;;;;;;;6.90;5.67;;;8.80;99.90;;;;;;4968699;28;20210;-71
2022/11/25 12:19:46;;;;;;;11.53;6.23;;;8.70;99.90;;;;;;4968321;28;20219;-71
2022/11/25 12:22:21;;;;;;;6.87;5.70;;;8.70;99.90;;;;;;4968724;28;20211;-72
2022/11/25 12:24:53;;;;;;;7.70;6.90;;;8.70;99.90;;;;;;4968719;28;20317;-71
2022/11/25 12:27:23;;;;;;;8.57;6.27;;;8.70;99.90;;;;;;4968266;28;20195;-72
2022/11/25 12:29:55;;;;;;;10.33;7.40;;;8.70;99.90;;;;;;4968548;28;20210;-71
2022/11/25 12:32:56;;;;;;;9.33;7.03;;;8.60;99.90;;;;;;4949347;28;20298;-72
2022/11/25 12:35:33;;;;;;;7.93;7.13;;;8.60;99.90;;;;;;4923778;28;20238;-72
2022/11/25 12:38:11;;;;;;;7.53;6.30;;;8.60;99.90;;;;;;4955557;28;20656;-72
2022/11/25 12:40:45;;;;;;;9.47;7.57;;;8.60;99.90;;;;;;4968230;28;20341;-71
2022/11/25 12:43:23;;;;;;;10.13;8.27;;;8.70;99.90;;;;;;4968435;28;20286;-72
2022/11/25 12:45:54;;;;;;;8.40;7.40;;;8.50;99.90;;;;;;4971141;28;20286;-72
2022/11/25 12:48:21;;;;;;;9.67;7.20;;;8.60;99.90;;;;;;4972071;28;20658;-71
2022/11/25 12:50:59;;;;;;;7.17;6.47;;;8.60;99.90;;;;;;4972039;28;20242;-72
2022/11/25 12:53:36;;;;;;;10.50;6.40;;;8.60;99.90;;;;;;4972204;28;20285;-72
2022/11/25 12:56:11;;;;;;;10.37;5.80;;;8.60;99.90;;;;;;4953204;29;20565;-72
2022/11/25 12:59:00;;;;;;;6.70;5.53;;;8.50;99.90;;;;;;4952796;28;20287;-72
2022/11/25 13:01:55;;;;;;;8.63;5.67;;;8.60;99.90;;;;;;4952592;28;20279;-72
2022/11/25 13:05:09;;;;;;;10.90;6.83;;;8.50;99.90;;;;;;4952334;28;20243;-71
2022/11/25 13:07:43;;;;;;;11.30;7.10;;;8.50;99.90;;;;;;4955069;28;20257;-71
2022/11/25 13:10:34;;;;;;;7.07;6.40;;;8.40;99.90;;;;;;4972104;28;20201;-71
2022/11/25 13:13:21;;;;;;;8.30;7.33;;;8.40;99.90;;;;;;4971673;28;20207;-71